sensor_id;sensor_type;location;lat;lon;timestamp;pressure;altitude;pressure_sealevel;temperature;humidity
58471;BME280;44258;51.288;12.068;2023-03-20T00:00:44;100546.69;;;11.19;63.23
58471;BME280;44258;51.288;12.068;2023-03-20T00:03:14;100547.91;;;11.13;63.13
58471;BME280;44258;51.288;12.068;2023-03-20T00:05:42;100548.16;;;11.09;63.20
58471;BME280;44258;51.288;12.068;2023-03-20T00:08:09;100556.41;;;11.06;63.28
58471;BME280;44258;51.288;12.068;2023-03-20T00:10:39;100541.22;;;11.05;63.36
58471;BME280;44258;51.288;12.068;2023-03-20T00:13:11;100549.13;;;11.08;63.49
58471;BME280;44258;51.288;12.068;2023-03-20T00:15:41;100546.34;;;11.09;63.11
58471;BME280;44258;51.288;12.068;2023-03-20T00:18:14;100545.81;;;11.03;63.21
58471;BME280;44258;51.288;12.068;2023-03-20T00:20:43;100537.91;;;11.00;63.19
58471;BME280;44258;51.288;12.068;2023-03-20T00:23:10;100541.72;;;10.96;63.45
58471;BME280;44258;51.288;12.068;2023-03-20T00:25:42;100545.63;;;10.90;63.70
58471;BME280;44258;51.288;12.068;2023-03-20T00:28:29;100538.47;;;10.89;64.03
58471;BME280;44258;51.288;12.068;2023-03-20T00:30:57;100532.25;;;10.88;63.65
58471;BME280;44258;51.288;12.068;2023-03-20T00:33:24;100533.44;;;10.83;63.98
58471;BME280;44258;51.288;12.068;2023-03-20T00:35:51;100531.72;;;10.82;64.17
58471;BME280;44258;51.288;12.068;2023-03-20T00:38:20;100527.50;;;10.76;64.13
58471;BME280;44258;51.288;12.068;2023-03-20T00:40:48;100535.50;;;10.78;64.40
58471;BME280;44258;51.288;12.068;2023-03-20T00:43:15;100538.03;;;10.81;64.37
58471;BME280;44258;51.288;12.068;2023-03-20T00:45:44;100530.75;;;10.83;64.21
58471;BME280;44258;51.288;12.068;2023-03-20T00:48:14;100539.91;;;10.79;64.19
58471;BME280;44258;51.288;12.068;2023-03-20T00:50:42;100536.34;;;10.78;64.06
58471;BME280;44258;51.288;12.068;2023-03-20T00:53:09;100531.16;;;10.75;64.22
58471;BME280;44258;51.288;12.068;2023-03-20T00:55:37;100530.09;;;10.78;64.31
58471;BME280;44258;51.288;12.068;2023-03-20T00:58:06;100532.66;;;10.81;64.26
58471;BME280;44258;51.288;12.068;2023-03-20T01:00:40;100527.13;;;10.84;64.04
58471;BME280;44258;51.288;12.068;2023-03-20T01:03:14;100529.81;;;10.84;64.22
58471;BME280;44258;51.288;12.068;2023-03-20T01:05:41;100532.25;;;10.88;63.95
58471;BME280;44258;51.288;12.068;2023-03-20T01:08:15;100535.13;;;10.85;64.04
58471;BME280;44258;51.288;12.068;2023-03-20T01:10:43;100534.94;;;10.88;64.05
58471;BME280;44258;51.288;12.068;2023-03-20T01:13:18;100533.72;;;10.77;64.21
58471;BME280;44258;51.288;12.068;2023-03-20T01:15:46;100537.38;;;10.75;64.63
58471;BME280;44258;51.288;12.068;2023-03-20T01:18:14;100542.41;;;10.83;64.24
58471;BME280;44258;51.288;12.068;2023-03-20T01:20:42;100539.53;;;10.86;64.25
58471;BME280;44258;51.288;12.068;2023-03-20T01:23:11;100543.88;;;10.89;63.94
58471;BME280;44258;51.288;12.068;2023-03-20T01:25:38;100541.09;;;10.90;63.77
58471;BME280;44258;51.288;12.068;2023-03-20T01:28:14;100547.09;;;10.78;63.89
58471;BME280;44258;51.288;12.068;2023-03-20T01:30:45;100538.25;;;10.76;63.89
58471;BME280;44258;51.288;12.068;2023-03-20T01:33:14;100547.28;;;10.75;64.09
58471;BME280;44258;51.288;12.068;2023-03-20T01:35:41;100552.88;;;10.70;64.10
58471;BME280;44258;51.288;12.068;2023-03-20T01:38:14;100552.44;;;10.62;64.07
58471;BME280;44258;51.288;12.068;2023-03-20T01:40:49;100538.53;;;10.54;64.52
58471;BME280;44258;51.288;12.068;2023-03-20T01:43:22;100545.78;;;10.52;64.22
58471;BME280;44258;51.288;12.068;2023-03-20T01:45:58;100548.75;;;10.47;64.52
58471;BME280;44258;51.288;12.068;2023-03-20T01:48:35;100546.97;;;10.46;64.40
58471;BME280;44258;51.288;12.068;2023-03-20T01:51:05;100548.66;;;10.49;64.27
58471;BME280;44258;51.288;12.068;2023-03-20T01:53:32;100552.53;;;10.43;64.63
58471;BME280;44258;51.288;12.068;2023-03-20T01:55:59;100551.75;;;10.41;64.49
58471;BME280;44258;51.288;12.068;2023-03-20T01:58:37;100557.38;;;10.37;64.88
58471;BME280;44258;51.288;12.068;2023-03-20T02:01:07;100563.59;;;10.37;64.68
58471;BME280;44258;51.288;12.068;2023-03-20T02:03:38;100561.16;;;10.32;64.94
58471;BME280;44258;51.288;12.068;2023-03-20T02:06:06;100566.69;;;10.29;65.16
58471;BME280;44258;51.288;12.068;2023-03-20T02:08:36;100563.91;;;10.31;65.13
58471;BME280;44258;51.288;12.068;2023-03-20T02:11:07;100556.47;;;10.36;64.54
58471;BME280;44258;51.288;12.068;2023-03-20T02:13:35;100554.91;;;10.32;64.69
58471;BME280;44258;51.288;12.068;2023-03-20T02:16:05;100557.81;;;10.27;64.88
58471;BME280;44258;51.288;12.068;2023-03-20T02:18:35;100562.59;;;10.22;65.22
58471;BME280;44258;51.288;12.068;2023-03-20T02:21:24;100553.94;;;10.15;65.53
58471;BME280;44258;51.288;12.068;2023-03-20T02:24:21;100552.28;;;10.13;65.87
58471;BME280;44258;51.288;12.068;2023-03-20T02:27:01;100551.34;;;10.14;65.70
58471;BME280;44258;51.288;12.068;2023-03-20T02:33:33;100548.25;;;10.04;66.33
58471;BME280;44258;51.288;12.068;2023-03-20T02:36:38;100547.00;;;9.94;66.89
58471;BME280;44258;51.288;12.068;2023-03-20T02:39:19;100544.13;;;9.97;66.67
58471;BME280;44258;51.288;12.068;2023-03-20T02:41:49;100547.94;;;10.28;65.97
58471;BME280;44258;51.288;12.068;2023-03-20T02:44:21;100538.59;;;10.18;65.95
58471;BME280;44258;51.288;12.068;2023-03-20T02:46:55;100540.59;;;10.14;66.41
58471;BME280;44258;51.288;12.068;2023-03-20T02:49:33;100538.72;;;10.16;66.41
58471;BME280;44258;51.288;12.068;2023-03-20T02:52:10;100538.53;;;10.19;66.45
58471;BME280;44258;51.288;12.068;2023-03-20T02:54:52;100541.22;;;10.19;66.54
58471;BME280;44258;51.288;12.068;2023-03-20T02:57:26;100528.56;;;10.21;66.67
58471;BME280;44258;51.288;12.068;2023-03-20T03:00:00;100538.28;;;10.24;66.82
58471;BME280;44258;51.288;12.068;2023-03-20T03:02:34;100534.69;;;10.25;66.80
58471;BME280;44258;51.288;12.068;2023-03-20T03:05:05;100546.84;;;10.32;66.69
58471;BME280;44258;51.288;12.068;2023-03-20T03:07:36;100532.72;;;10.28;66.80
58471;BME280;44258;51.288;12.068;2023-03-20T03:10:11;100541.94;;;10.23;67.05
58471;BME280;44258;51.288;12.068;2023-03-20T03:12:43;100540.53;;;10.33;66.87
58471;BME280;44258;51.288;12.068;2023-03-20T03:15:16;100538.31;;;10.41;66.50
58471;BME280;44258;51.288;12.068;2023-03-20T03:17:46;100545.09;;;10.48;66.26
58471;BME280;44258;51.288;12.068;2023-03-20T03:20:20;100541.47;;;10.49;66.19
58471;BME280;44258;51.288;12.068;2023-03-20T03:22:48;100547.69;;;10.50;65.87
58471;BME280;44258;51.288;12.068;2023-03-20T03:25:17;100549.66;;;10.46;65.99
58471;BME280;44258;51.288;12.068;2023-03-20T03:27:46;100546.97;;;10.46;66.22
58471;BME280;44258;51.288;12.068;2023-03-20T03:30:17;100549.44;;;10.51;66.13
58471;BME280;44258;51.288;12.068;2023-03-20T03:32:47;100549.03;;;10.59;65.97
58471;BME280;44258;51.288;12.068;2023-03-20T03:35:18;100549.13;;;10.57;65.87
58471;BME280;44258;51.288;12.068;2023-03-20T03:37:54;100554.19;;;10.63;65.94
58471;BME280;44258;51.288;12.068;2023-03-20T03:40:31;100558.78;;;10.61;65.94
58471;BME280;44258;51.288;12.068;2023-03-20T03:43:06;100563.19;;;10.62;65.89
58471;BME280;44258;51.288;12.068;2023-03-20T03:45:37;100572.03;;;10.64;65.63
58471;BME280;44258;51.288;12.068;2023-03-20T03:48:07;100560.41;;;10.64;65.82
58471;BME280;44258;51.288;12.068;2023-03-20T03:50:41;100564.88;;;10.65;65.62
58471;BME280;44258;51.288;12.068;2023-03-20T03:53:17;100563.91;;;10.66;65.46
58471;BME280;44258;51.288;12.068;2023-03-20T03:55:50;100571.03;;;10.67;65.58
58471;BME280;44258;51.288;12.068;2023-03-20T03:58:21;100574.91;;;10.61;65.69
58471;BME280;44258;51.288;12.068;2023-03-20T04:00:51;100562.66;;;10.55;65.88
58471;BME280;44258;51.288;12.068;2023-03-20T04:03:23;100571.50;;;10.58;66.13
58471;BME280;44258;51.288;12.068;2023-03-20T04:05:52;100571.31;;;10.61;65.74
58471;BME280;44258;51.288;12.068;2023-03-20T04:08:20;100569.53;;;10.61;65.66
58471;BME280;44258;51.288;12.068;2023-03-20T04:10:48;100572.44;;;10.57;65.91
58471;BME280;44258;51.288;12.068;2023-03-20T04:13:15;100579.31;;;10.62;65.80
58471;BME280;44258;51.288;12.068;2023-03-20T04:15:42;100581.88;;;10.65;65.50
58471;BME280;44258;51.288;12.068;2023-03-20T04:18:13;100571.31;;;10.61;65.85
58471;BME280;44258;51.288;12.068;2023-03-20T04:20:41;100586.13;;;10.69;65.65
58471;BME280;44258;51.288;12.068;2023-03-20T04:23:12;100593.56;;;10.64;66.23
58471;BME280;44258;51.288;12.068;2023-03-20T04:25:39;100587.25;;;10.65;65.63
58471;BME280;44258;51.288;12.068;2023-03-20T04:28:08;100590.97;;;10.63;66.19
58471;BME280;44258;51.288;12.068;2023-03-20T04:30:35;100592.03;;;10.59;65.78
58471;BME280;44258;51.288;12.068;2023-03-20T04:33:02;100593.56;;;10.64;65.69
58471;BME280;44258;51.288;12.068;2023-03-20T04:35:29;100591.38;;;10.55;65.91
58471;BME280;44258;51.288;12.068;2023-03-20T04:37:56;100595.31;;;10.48;66.00
58471;BME280;44258;51.288;12.068;2023-03-20T04:40:24;100609.84;;;10.44;66.36
58471;BME280;44258;51.288;12.068;2023-03-20T04:42:51;100607.72;;;10.50;66.27
58471;BME280;44258;51.288;12.068;2023-03-20T04:45:19;100604.09;;;10.51;66.24
58471;BME280;44258;51.288;12.068;2023-03-20T04:47:46;100606.72;;;10.53;66.31
58471;BME280;44258;51.288;12.068;2023-03-20T04:50:13;100602.91;;;10.57;65.97
58471;BME280;44258;51.288;12.068;2023-03-20T04:52:40;100601.94;;;10.58;65.83
58471;BME280;44258;51.288;12.068;2023-03-20T04:55:07;100602.81;;;10.59;66.05
58471;BME280;44258;51.288;12.068;2023-03-20T04:57:37;100610.88;;;10.59;66.13
58471;BME280;44258;51.288;12.068;2023-03-20T05:00:04;100608.75;;;10.65;65.94
58471;BME280;44258;51.288;12.068;2023-03-20T05:02:33;100612.47;;;10.63;65.90
58471;BME280;44258;51.288;12.068;2023-03-20T05:04:59;100615.72;;;10.69;65.81
58471;BME280;44258;51.288;12.068;2023-03-20T05:07:27;100614.75;;;10.70;65.87
58471;BME280;44258;51.288;12.068;2023-03-20T05:09:54;100614.22;;;10.64;65.86
58471;BME280;44258;51.288;12.068;2023-03-20T05:12:21;100619.59;;;10.64;65.81
58471;BME280;44258;51.288;12.068;2023-03-20T05:14:48;100620.63;;;10.61;65.88
58471;BME280;44258;51.288;12.068;2023-03-20T05:17:15;100623.44;;;10.58;66.01
58471;BME280;44258;51.288;12.068;2023-03-20T05:19:44;100620.69;;;10.60;66.15
58471;BME280;44258;51.288;12.068;2023-03-20T05:22:10;100615.84;;;10.66;65.87
58471;BME280;44258;51.288;12.068;2023-03-20T05:24:37;100626.47;;;10.69;65.69
58471;BME280;44258;51.288;12.068;2023-03-20T05:27:04;100623.47;;;10.75;65.51
58471;BME280;44258;51.288;12.068;2023-03-20T05:29:30;100615.41;;;10.75;65.24
58471;BME280;44258;51.288;12.068;2023-03-20T05:31:57;100623.19;;;10.82;65.26
58471;BME280;44258;51.288;12.068;2023-03-20T05:34:24;100616.75;;;10.84;65.12
58471;BME280;44258;51.288;12.068;2023-03-20T05:36:55;100619.44;;;10.84;65.13
58471;BME280;44258;51.288;12.068;2023-03-20T05:39:21;100623.00;;;10.85;65.07
58471;BME280;44258;51.288;12.068;2023-03-20T05:41:48;100628.22;;;10.88;65.17
58471;BME280;44258;51.288;12.068;2023-03-20T05:44:15;100627.25;;;10.89;65.05
58471;BME280;44258;51.288;12.068;2023-03-20T05:46:42;100635.00;;;10.95;65.00
58471;BME280;44258;51.288;12.068;2023-03-20T05:49:09;100634.06;;;10.96;64.93
58471;BME280;44258;51.288;12.068;2023-03-20T05:51:36;100635.91;;;10.96;64.73
58471;BME280;44258;51.288;12.068;2023-03-20T05:54:08;100629.72;;;10.93;64.98
58471;BME280;44258;51.288;12.068;2023-03-20T05:56:35;100635.72;;;10.99;64.95
58471;BME280;44258;51.288;12.068;2023-03-20T05:59:02;100637.22;;;11.04;64.96
58471;BME280;44258;51.288;12.068;2023-03-20T06:01:29;100637.84;;;11.09;64.53
58471;BME280;44258;51.288;12.068;2023-03-20T06:03:56;100648.38;;;11.14;64.57
58471;BME280;44258;51.288;12.068;2023-03-20T06:06:22;100642.88;;;11.15;64.41
58471;BME280;44258;51.288;12.068;2023-03-20T06:08:49;100648.28;;;11.15;64.59
58471;BME280;44258;51.288;12.068;2023-03-20T06:11:18;100649.31;;;11.13;64.60
58471;BME280;44258;51.288;12.068;2023-03-20T06:13:45;100656.19;;;11.19;64.38
58471;BME280;44258;51.288;12.068;2023-03-20T06:16:13;100657.91;;;11.20;64.33
58471;BME280;44258;51.288;12.068;2023-03-20T06:18:40;100664.09;;;11.22;64.49
58471;BME280;44258;51.288;12.068;2023-03-20T06:21:08;100660.53;;;11.21;64.33
58471;BME280;44258;51.288;12.068;2023-03-20T06:23:37;100664.97;;;11.22;64.61
58471;BME280;44258;51.288;12.068;2023-03-20T06:26:04;100671.22;;;11.23;64.78
58471;BME280;44258;51.288;12.068;2023-03-20T06:28:34;100664.19;;;11.20;64.98
58471;BME280;44258;51.288;12.068;2023-03-20T06:31:01;100667.28;;;11.12;65.05
58471;BME280;44258;51.288;12.068;2023-03-20T06:33:28;100671.25;;;11.05;65.75
58471;BME280;44258;51.288;12.068;2023-03-20T06:35:55;100675.22;;;10.98;65.91
58471;BME280;44258;51.288;12.068;2023-03-20T06:38:21;100668.19;;;10.96;66.29
58471;BME280;44258;51.288;12.068;2023-03-20T06:40:48;100673.56;;;10.96;66.65
58471;BME280;44258;51.288;12.068;2023-03-20T06:43:15;100676.16;;;10.97;66.89
58471;BME280;44258;51.288;12.068;2023-03-20T06:45:43;100678.78;;;10.99;67.17
58471;BME280;44258;51.288;12.068;2023-03-20T06:48:10;100672.03;;;11.07;66.95
58471;BME280;44258;51.288;12.068;2023-03-20T06:50:36;100674.50;;;11.12;67.31
58471;BME280;44258;51.288;12.068;2023-03-20T06:53:04;100679.00;;;11.11;67.15
58471;BME280;44258;51.288;12.068;2023-03-20T06:55:31;100676.22;;;11.13;67.06
58471;BME280;44258;51.288;12.068;2023-03-20T06:57:58;100679.16;;;11.08;67.14
58471;BME280;44258;51.288;12.068;2023-03-20T07:00:25;100680.91;;;11.09;67.43
58471;BME280;44258;51.288;12.068;2023-03-20T07:02:53;100682.47;;;11.13;67.32
58471;BME280;44258;51.288;12.068;2023-03-20T07:05:19;100682.94;;;11.22;67.32
58471;BME280;44258;51.288;12.068;2023-03-20T07:07:47;100690.06;;;11.23;67.52
58471;BME280;44258;51.288;12.068;2023-03-20T07:10:14;100687.91;;;11.29;67.10
58471;BME280;44258;51.288;12.068;2023-03-20T07:12:41;100683.44;;;11.30;67.32
58471;BME280;44258;51.288;12.068;2023-03-20T07:15:09;100682.53;;;11.29;67.34
58471;BME280;44258;51.288;12.068;2023-03-20T07:17:36;100693.31;;;11.29;67.98
58471;BME280;44258;51.288;12.068;2023-03-20T07:20:06;100705.38;;;11.22;68.64
58471;BME280;44258;51.288;12.068;2023-03-20T07:22:35;100700.38;;;11.14;69.14
58471;BME280;44258;51.288;12.068;2023-03-20T07:25:03;100707.81;;;11.09;69.23
58471;BME280;44258;51.288;12.068;2023-03-20T07:27:30;100710.28;;;11.14;69.22
58471;BME280;44258;51.288;12.068;2023-03-20T07:29:57;100703.84;;;11.17;69.17
58471;BME280;44258;51.288;12.068;2023-03-20T07:32:24;100706.03;;;11.26;68.86
58471;BME280;44258;51.288;12.068;2023-03-20T07:34:50;100712.38;;;11.42;68.66
58471;BME280;44258;51.288;12.068;2023-03-20T07:37:19;100705.00;;;11.46;68.18
58471;BME280;44258;51.288;12.068;2023-03-20T07:39:46;100702.56;;;11.41;68.38
58471;BME280;44258;51.288;12.068;2023-03-20T07:42:13;100697.88;;;11.45;68.61
58471;BME280;44258;51.288;12.068;2023-03-20T07:44:40;100693.34;;;11.45;68.56
58471;BME280;44258;51.288;12.068;2023-03-20T07:47:07;100697.34;;;11.54;68.27
58471;BME280;44258;51.288;12.068;2023-03-20T07:49:34;100691.97;;;11.54;68.54
58471;BME280;44258;51.288;12.068;2023-03-20T07:52:01;100700.44;;;11.64;68.18
58471;BME280;44258;51.288;12.068;2023-03-20T07:54:30;100692.88;;;11.54;68.15
58471;BME280;44258;51.288;12.068;2023-03-20T07:56:57;100694.94;;;11.49;68.97
58471;BME280;44258;51.288;12.068;2023-03-20T07:59:24;100693.34;;;11.45;68.95
58471;BME280;44258;51.288;12.068;2023-03-20T08:01:50;100699.31;;;11.68;68.37
58471;BME280;44258;51.288;12.068;2023-03-20T08:04:18;100690.41;;;11.50;69.00
58471;BME280;44258;51.288;12.068;2023-03-20T08:06:46;100699.69;;;11.78;68.12
58471;BME280;44258;51.288;12.068;2023-03-20T08:09:16;100694.84;;;11.51;68.86
58471;BME280;44258;51.288;12.068;2023-03-20T08:11:44;100696.03;;;11.45;69.12
58471;BME280;44258;51.288;12.068;2023-03-20T08:14:13;100695.69;;;11.69;68.28
58471;BME280;44258;51.288;12.068;2023-03-20T08:16:40;100698.25;;;11.70;68.17
58471;BME280;44258;51.288;12.068;2023-03-20T08:19:07;100698.72;;;11.79;68.07
58471;BME280;44258;51.288;12.068;2023-03-20T08:21:34;100702.63;;;11.89;67.62
58471;BME280;44258;51.288;12.068;2023-03-20T08:24:00;100699.16;;;12.03;67.22
58471;BME280;44258;51.288;12.068;2023-03-20T08:26:27;100701.31;;;12.13;66.98
58471;BME280;44258;51.288;12.068;2023-03-20T08:28:55;100710.25;;;12.14;66.21
58471;BME280;44258;51.288;12.068;2023-03-20T08:31:22;100700.53;;;12.11;66.00
58471;BME280;44258;51.288;12.068;2023-03-20T08:33:50;100708.16;;;12.03;66.78
58471;BME280;44258;51.288;12.068;2023-03-20T08:36:17;100724.22;;;12.05;66.81
58471;BME280;44258;51.288;12.068;2023-03-20T08:38:46;100715.72;;;12.12;66.74
58471;BME280;44258;51.288;12.068;2023-03-20T08:41:13;100710.69;;;12.22;66.60
58471;BME280;44258;51.288;12.068;2023-03-20T08:43:40;100720.50;;;12.23;66.53
58471;BME280;44258;51.288;12.068;2023-03-20T08:46:08;100712.84;;;12.31;66.27
58471;BME280;44258;51.288;12.068;2023-03-20T08:48:35;100722.84;;;12.29;66.04
58471;BME280;44258;51.288;12.068;2023-03-20T08:51:02;100716.94;;;12.39;66.17
58471;BME280;44258;51.288;12.068;2023-03-20T08:53:30;100732.25;;;12.38;65.99
58471;BME280;44258;51.288;12.068;2023-03-20T08:55:57;100730.16;;;12.27;66.00
58471;BME280;44258;51.288;12.068;2023-03-20T08:58:24;100731.19;;;12.41;65.93
58471;BME280;44258;51.288;12.068;2023-03-20T09:00:50;100740.50;;;12.51;65.74
58471;BME280;44258;51.288;12.068;2023-03-20T09:03:19;100739.38;;;12.55;65.46
58471;BME280;44258;51.288;12.068;2023-03-20T09:05:48;100738.59;;;12.53;64.89
58471;BME280;44258;51.288;12.068;2023-03-20T09:08:15;100745.28;;;12.46;65.09
58471;BME280;44258;51.288;12.068;2023-03-20T09:10:42;100739.81;;;12.47;65.26
58471;BME280;44258;51.288;12.068;2023-03-20T09:13:09;100742.41;;;12.49;64.91
58471;BME280;44258;51.288;12.068;2023-03-20T09:15:35;100750.44;;;12.50;65.05
58471;BME280;44258;51.288;12.068;2023-03-20T09:18:02;100746.50;;;12.56;64.86
58471;BME280;44258;51.288;12.068;2023-03-20T09:20:30;100747.19;;;12.60;64.76
58471;BME280;44258;51.288;12.068;2023-03-20T09:22:57;100745.03;;;12.66;64.67
58471;BME280;44258;51.288;12.068;2023-03-20T09:25:24;100742.22;;;12.68;64.68
58471;BME280;44258;51.288;12.068;2023-03-20T09:27:52;100746.66;;;12.69;64.65
58471;BME280;44258;51.288;12.068;2023-03-20T09:30:20;100742.81;;;12.73;64.53
58471;BME280;44258;51.288;12.068;2023-03-20T09:32:47;100748.03;;;12.76;64.46
58471;BME280;44258;51.288;12.068;2023-03-20T09:35:14;100748.91;;;12.77;64.09
58471;BME280;44258;51.288;12.068;2023-03-20T09:37:42;100746.59;;;12.70;64.13
58471;BME280;44258;51.288;12.068;2023-03-20T09:40:21;100745.03;;;12.66;64.43
58471;BME280;44258;51.288;12.068;2023-03-20T09:42:57;100748.59;;;12.67;64.06
58471;BME280;44258;51.288;12.068;2023-03-20T09:45:38;100752.50;;;12.61;64.02
58471;BME280;44258;51.288;12.068;2023-03-20T09:48:14;100746.84;;;12.50;64.36
58471;BME280;44258;51.288;12.068;2023-03-20T09:50:48;100758.78;;;12.30;64.62
58471;BME280;44258;51.288;12.068;2023-03-20T09:53:26;100757.59;;;12.02;65.90
58471;BME280;44258;51.288;12.068;2023-03-20T09:55:56;100755.75;;;12.20;65.55
58471;BME280;44258;51.288;12.068;2023-03-20T09:58:24;100756.44;;;12.24;65.41
58471;BME280;44258;51.288;12.068;2023-03-20T10:00:55;100753.22;;;12.33;64.99
58471;BME280;44258;51.288;12.068;2023-03-20T10:03:25;100753.13;;;12.34;64.75
58471;BME280;44258;51.288;12.068;2023-03-20T10:05:58;100749.66;;;12.32;65.02
58471;BME280;44258;51.288;12.068;2023-03-20T10:08:31;100753.22;;;12.33;65.09
58471;BME280;44258;51.288;12.068;2023-03-20T10:11:06;100748.78;;;12.32;65.16
58471;BME280;44258;51.288;12.068;2023-03-20T10:13:47;100751.56;;;12.30;65.12
58471;BME280;44258;51.288;12.068;2023-03-20T10:16:29;100750.50;;;12.33;65.45
58471;BME280;44258;51.288;12.068;2023-03-20T10:19:06;100748.88;;;12.46;65.29
58471;BME280;44258;51.288;12.068;2023-03-20T10:21:39;100752.25;;;12.50;65.16
58471;BME280;44258;51.288;12.068;2023-03-20T10:24:13;100751.22;;;12.52;65.08
58471;BME280;44258;51.288;12.068;2023-03-20T10:26:45;100749.19;;;12.56;64.80
58471;BME280;44258;51.288;12.068;2023-03-20T10:29:23;100742.34;;;12.50;64.79
58471;BME280;44258;51.288;12.068;2023-03-20T10:31:58;100744.41;;;12.45;64.82
58471;BME280;44258;51.288;12.068;2023-03-20T10:34:59;100743.38;;;12.48;65.22
58471;BME280;44258;51.288;12.068;2023-03-20T10:37:43;100750.88;;;12.43;65.30
58471;BME280;44258;51.288;12.068;2023-03-20T10:40:25;100750.50;;;12.49;65.40
58471;BME280;44258;51.288;12.068;2023-03-20T10:42:57;100746.31;;;12.59;64.83
58471;BME280;44258;51.288;12.068;2023-03-20T10:45:32;100747.72;;;12.66;64.70
58471;BME280;44258;51.288;12.068;2023-03-20T10:48:07;100745.19;;;12.63;64.69
58471;BME280;44258;51.288;12.068;2023-03-20T10:50:40;100738.38;;;12.56;65.05
58471;BME280;44258;51.288;12.068;2023-03-20T10:53:20;100730.13;;;12.59;65.08
58471;BME280;44258;51.288;12.068;2023-03-20T10:55:50;100739.00;;;12.61;65.02
58471;BME280;44258;51.288;12.068;2023-03-20T10:58:22;100737.19;;;12.62;65.04
58471;BME280;44258;51.288;12.068;2023-03-20T11:00:53;100738.94;;;12.63;65.35
58471;BME280;44258;51.288;12.068;2023-03-20T11:03:22;100728.56;;;12.71;65.20
58471;BME280;44258;51.288;12.068;2023-03-20T11:05:52;100740.47;;;12.83;64.92
58471;BME280;44258;51.288;12.068;2023-03-20T11:08:24;100736.16;;;12.94;64.78
58471;BME280;44258;51.288;12.068;2023-03-20T11:11:00;100739.38;;;13.01;64.80
58471;BME280;44258;51.288;12.068;2023-03-20T11:13:32;100736.47;;;13.04;64.28
58471;BME280;44258;51.288;12.068;2023-03-20T11:16:17;100739.50;;;12.84;64.45
58471;BME280;44258;51.288;12.068;2023-03-20T11:18:45;100738.19;;;12.91;64.02
58471;BME280;44258;51.288;12.068;2023-03-20T11:21:17;100734.50;;;12.92;63.96
58471;BME280;44258;51.288;12.068;2023-03-20T11:23:46;100727.38;;;12.91;64.11
58471;BME280;44258;51.288;12.068;2023-03-20T11:26:15;100741.28;;;12.69;64.71
58471;BME280;44258;51.288;12.068;2023-03-20T11:28:48;100745.28;;;12.46;65.80
58471;BME280;44258;51.288;12.068;2023-03-20T11:31:19;100735.19;;;12.49;65.85
58471;BME280;44258;51.288;12.068;2023-03-20T11:33:52;100737.19;;;12.46;65.95
58471;BME280;44258;51.288;12.068;2023-03-20T11:36:24;100731.56;;;12.34;66.46
58471;BME280;44258;51.288;12.068;2023-03-20T11:38:53;100738.25;;;12.27;66.86
58471;BME280;44258;51.288;12.068;2023-03-20T11:41:26;100738.34;;;12.26;66.50
58471;BME280;44258;51.288;12.068;2023-03-20T11:43:55;100739.13;;;12.28;66.40
58471;BME280;44258;51.288;12.068;2023-03-20T11:46:23;100730.00;;;12.30;66.36
58471;BME280;44258;51.288;12.068;2023-03-20T11:49:16;100726.09;;;12.36;66.38
58471;BME280;44258;51.288;12.068;2023-03-20T11:51:50;100721.97;;;12.45;65.90
58471;BME280;44258;51.288;12.068;2023-03-20T11:54:19;100715.97;;;12.40;66.10
58471;BME280;44258;51.288;12.068;2023-03-20T11:56:55;100720.00;;;12.32;66.16
58471;BME280;44258;51.288;12.068;2023-03-20T11:59:25;100721.19;;;12.43;66.07
58471;BME280;44258;51.288;12.068;2023-03-20T12:01:59;100715.88;;;12.57;65.77
58471;BME280;44258;51.288;12.068;2023-03-20T12:04:32;100708.88;;;12.69;65.73
58471;BME280;44258;51.288;12.068;2023-03-20T12:07:04;100706.28;;;12.67;65.68
58471;BME280;44258;51.288;12.068;2023-03-20T12:09:39;100706.78;;;12.74;65.72
58471;BME280;44258;51.288;12.068;2023-03-20T12:12:14;100707.66;;;12.74;66.04
58471;BME280;44258;51.288;12.068;2023-03-20T12:14:52;100696.38;;;12.82;65.88
58471;BME280;44258;51.288;12.068;2023-03-20T12:17:39;100701.53;;;12.87;65.66
58471;BME280;44258;51.288;12.068;2023-03-20T12:20:21;100697.28;;;12.83;65.68
58471;BME280;44258;51.288;12.068;2023-03-20T12:22:55;100688.13;;;12.85;65.40
58471;BME280;44258;51.288;12.068;2023-03-20T12:25:25;100683.31;;;12.90;65.44
58471;BME280;44258;51.288;12.068;2023-03-20T12:28:02;100685.47;;;12.69;65.76
58471;BME280;44258;51.288;12.068;2023-03-20T12:30:44;100685.47;;;12.69;65.99
58471;BME280;44258;51.288;12.068;2023-03-20T12:33:21;100687.72;;;12.77;65.43
58471;BME280;44258;51.288;12.068;2023-03-20T12:35:53;100678.28;;;12.84;65.20
58471;BME280;44258;51.288;12.068;2023-03-20T12:38:27;100678.03;;;12.89;65.04
58471;BME280;44258;51.288;12.068;2023-03-20T12:40:59;100676.50;;;12.99;64.86
58471;BME280;44258;51.288;12.068;2023-03-20T12:43:40;100671.50;;;13.07;64.75
58471;BME280;44258;51.288;12.068;2023-03-20T12:46:21;100671.91;;;13.15;64.30
58471;BME280;44258;51.288;12.068;2023-03-20T12:48:59;100669.72;;;13.22;64.30
58471;BME280;44258;51.288;12.068;2023-03-20T12:51:39;100668.56;;;13.26;64.14
58471;BME280;44258;51.288;12.068;2023-03-20T12:54:19;100663.75;;;13.31;64.00
58471;BME280;44258;51.288;12.068;2023-03-20T12:57:00;100668.78;;;13.38;64.19
58471;BME280;44258;51.288;12.068;2023-03-20T12:59:40;100664.78;;;13.43;63.99
58471;BME280;44258;51.288;12.068;2023-03-20T13:02:22;100666.63;;;13.43;64.17